sensor_id;sensor_type;location;lat;lon;timestamp;pressure;altitude;pressure_sealevel;temperature;humidity
41254;BME280;26987;59.928;30.306;2023-04-07T00:01:58;102844.78;;;1.17;68.08
41254;BME280;26987;59.928;30.306;2023-04-07T00:04:25;102846.88;;;1.11;67.54
41254;BME280;26987;59.928;30.306;2023-04-07T00:06:55;102853.25;;;1.07;68.26
41254;BME280;26987;59.928;30.306;2023-04-07T00:09:23;102845.53;;;1.04;68.70
41254;BME280;26987;59.928;30.306;2023-04-07T00:11:52;102842.03;;;1.04;68.50
41254;BME280;26987;59.928;30.306;2023-04-07T00:14:20;102790.00;;;0.75;67.72
41254;BME280;26987;59.928;30.306;2023-04-07T00:16:48;102836.94;;;1.00;67.93
41254;BME280;26987;59.928;30.306;2023-04-07T00:19:15;102838.72;;;1.00;68.22
41254;BME280;26987;59.928;30.306;2023-04-07T00:21:44;102837.22;;;0.96;67.86
41254;BME280;26987;59.928;30.306;2023-04-07T00:24:13;102826.63;;;0.81;68.40
41254;BME280;26987;59.928;30.306;2023-04-07T00:26:41;102846.53;;;0.87;68.57
41254;BME280;26987;59.928;30.306;2023-04-07T00:29:08;102835.97;;;0.87;68.36
41254;BME280;26987;59.928;30.306;2023-04-07T00:31:36;102836.25;;;0.82;68.77
41254;BME280;26987;59.928;30.306;2023-04-07T00:34:04;102832.66;;;0.83;68.27
41254;BME280;26987;59.928;30.306;2023-04-07T00:36:32;102839.25;;;0.76;68.66
41254;BME280;26987;59.928;30.306;2023-04-07T00:39:00;102833.00;;;0.77;68.69
41254;BME280;26987;59.928;30.306;2023-04-07T00:41:29;102826.91;;;0.77;68.99
41254;BME280;26987;59.928;30.306;2023-04-07T00:43:57;102837.63;;;0.73;68.92
41254;BME280;26987;59.928;30.306;2023-04-07T00:46:25;102835.25;;;0.69;68.58
41254;BME280;26987;59.928;30.306;2023-04-07T00:48:53;102835.25;;;0.69;68.67
41254;BME280;26987;59.928;30.306;2023-04-07T00:51:20;102835.44;;;0.66;69.25
41254;BME280;26987;59.928;30.306;2023-04-07T00:53:48;102829.13;;;0.68;69.44
41254;BME280;26987;59.928;30.306;2023-04-07T00:56:16;102809.09;;;0.49;69.54
41254;BME280;26987;59.928;30.306;2023-04-07T00:58:46;102829.19;;;0.67;69.44
41254;BME280;26987;59.928;30.306;2023-04-07T01:01:19;102823.00;;;0.68;68.90
41254;BME280;26987;59.928;30.306;2023-04-07T01:03:51;102822.78;;;0.71;68.87
41254;BME280;26987;59.928;30.306;2023-04-07T01:06:23;102829.28;;;0.65;69.23
41254;BME280;26987;59.928;30.306;2023-04-07T01:08:59;102832.78;;;0.66;69.49
41254;BME280;26987;59.928;30.306;2023-04-07T01:11:35;102832.88;;;0.64;69.18
41254;BME280;26987;59.928;30.306;2023-04-07T01:14:06;102829.97;;;0.69;69.37
41254;BME280;26987;59.928;30.306;2023-04-07T01:16:43;102834.09;;;0.58;69.26
41254;BME280;26987;59.928;30.306;2023-04-07T01:19:15;102801.44;;;0.45;69.24
41254;BME280;26987;59.928;30.306;2023-04-07T01:21:57;102836.56;;;0.61;69.32
41254;BME280;26987;59.928;30.306;2023-04-07T01:24:41;102834.66;;;0.63;69.66
41254;BME280;26987;59.928;30.306;2023-04-07T01:27:19;102822.31;;;0.64;69.45
41254;BME280;26987;59.928;30.306;2023-04-07T01:29:49;102832.38;;;0.57;69.66
41254;BME280;26987;59.928;30.306;2023-04-07T01:32:20;102823.19;;;0.48;69.74
41254;BME280;26987;59.928;30.306;2023-04-07T01:34:51;102835.00;;;0.57;69.38
41254;BME280;26987;59.928;30.306;2023-04-07T01:37:20;102836.75;;;0.58;69.59
41254;BME280;26987;59.928;30.306;2023-04-07T01:39:49;102833.31;;;0.56;69.71
41254;BME280;26987;59.928;30.306;2023-04-07T01:42:18;102835.31;;;0.53;70.17
41254;BME280;26987;59.928;30.306;2023-04-07T01:44:48;102796.59;;;0.37;69.96
41254;BME280;26987;59.928;30.306;2023-04-07T01:47:17;102814.44;;;0.48;69.56
41254;BME280;26987;59.928;30.306;2023-04-07T01:49:46;102818.59;;;0.52;68.95
41254;BME280;26987;59.928;30.306;2023-04-07T01:52:15;102824.66;;;0.54;69.57
41254;BME280;26987;59.928;30.306;2023-04-07T01:54:44;102830.69;;;0.56;69.26
41254;BME280;26987;59.928;30.306;2023-04-07T01:57:12;102839.72;;;0.52;70.06
41254;BME280;26987;59.928;30.306;2023-04-07T01:59:41;102832.75;;;0.51;70.25
41254;BME280;26987;59.928;30.306;2023-04-07T02:02:10;102819.03;;;0.44;70.03
41254;BME280;26987;59.928;30.306;2023-04-07T02:04:46;102829.50;;;0.46;69.77
41254;BME280;26987;59.928;30.306;2023-04-07T02:07:19;102836.06;;;0.55;69.96
41254;BME280;26987;59.928;30.306;2023-04-07T02:09:51;102805.53;;;0.34;69.99
41254;BME280;26987;59.928;30.306;2023-04-07T02:12:23;102830.38;;;0.46;69.77
41254;BME280;26987;59.928;30.306;2023-04-07T02:15:22;102829.50;;;0.46;70.10
41254;BME280;26987;59.928;30.306;2023-04-07T02:17:53;102818.03;;;0.31;70.68
41254;BME280;26987;59.928;30.306;2023-04-07T02:20:23;102829.13;;;0.37;69.79
41254;BME280;26987;59.928;30.306;2023-04-07T02:22:51;102819.06;;;0.28;70.31
41254;BME280;26987;59.928;30.306;2023-04-07T02:25:22;102819.16;;;0.27;70.51
41254;BME280;26987;59.928;30.306;2023-04-07T02:27:52;102833.78;;;0.32;70.21
41254;BME280;26987;59.928;30.306;2023-04-07T02:30:20;102829.72;;;0.27;70.68
41254;BME280;26987;59.928;30.306;2023-04-07T02:32:52;102833.22;;;0.27;70.49
41254;BME280;26987;59.928;30.306;2023-04-07T02:35:20;102835.25;;;0.22;71.02
41254;BME280;26987;59.928;30.306;2023-04-07T02:37:48;102824.09;;;0.17;71.54
41254;BME280;26987;59.928;30.306;2023-04-07T02:40:16;102836.38;;;0.18;70.99
41254;BME280;26987;59.928;30.306;2023-04-07T02:42:45;102834.00;;;0.13;71.51
41254;BME280;26987;59.928;30.306;2023-04-07T02:45:14;102834.84;;;0.14;71.78
41254;BME280;26987;59.928;30.306;2023-04-07T02:47:42;102835.94;;;0.09;72.63
41254;BME280;26987;59.928;30.306;2023-04-07T02:50:11;102828.19;;;0.06;72.74
41254;BME280;26987;59.928;30.306;2023-04-07T02:52:39;102829.56;;;-0.03;72.90
41254;BME280;26987;59.928;30.306;2023-04-07T02:55:12;102830.66;;;-0.07;73.30
41254;BME280;26987;59.928;30.306;2023-04-07T02:57:40;102818.84;;;-0.16;73.26
41254;BME280;26987;59.928;30.306;2023-04-07T03:00:15;102829.22;;;-0.13;72.98
41254;BME280;26987;59.928;30.306;2023-04-07T03:02:55;102839.88;;;-0.14;74.01
41254;BME280;26987;59.928;30.306;2023-04-07T03:05:26;102840.88;;;-0.17;74.04
41254;BME280;26987;59.928;30.306;2023-04-07T03:07:54;102840.97;;;-0.18;74.05
41254;BME280;26987;59.928;30.306;2023-04-07T03:10:22;102783.69;;;-0.48;74.20
41254;BME280;26987;59.928;30.306;2023-04-07T03:12:51;102841.13;;;-0.21;74.30
41254;BME280;26987;59.928;30.306;2023-04-07T03:15:18;102834.22;;;-0.24;74.67
41254;BME280;26987;59.928;30.306;2023-04-07T03:17:48;102840.28;;;-0.22;74.27
41254;BME280;26987;59.928;30.306;2023-04-07T03:20:16;102833.13;;;-0.20;74.31
41254;BME280;26987;59.928;30.306;2023-04-07T03:22:46;102833.31;;;-0.23;74.52
41254;BME280;26987;59.928;30.306;2023-04-07T03:25:32;102836.53;;;-0.18;74.84
41254;BME280;26987;59.928;30.306;2023-04-07T03:28:01;102831.28;;;-0.02;74.27
41254;BME280;26987;59.928;30.306;2023-04-07T03:30:32;102830.56;;;0.43;73.08
41254;BME280;26987;59.928;30.306;2023-04-07T03:33:01;102843.47;;;1.09;70.48
41254;BME280;26987;59.928;30.306;2023-04-07T03:35:31;102838.84;;;1.42;68.72
41254;BME280;26987;59.928;30.306;2023-04-07T03:38:00;102842.63;;;1.53;67.87
41254;BME280;26987;59.928;30.306;2023-04-07T03:40:28;102841.59;;;1.55;67.13
41254;BME280;26987;59.928;30.306;2023-04-07T03:42:56;102844.81;;;1.60;66.82
41254;BME280;26987;59.928;30.306;2023-04-07T03:45:23;102848.56;;;1.71;66.29
41254;BME280;26987;59.928;30.306;2023-04-07T03:47:52;102841.94;;;1.93;65.95
41254;BME280;26987;59.928;30.306;2023-04-07T03:50:21;102842.72;;;2.50;63.21
41254;BME280;26987;59.928;30.306;2023-04-07T03:53:02;102854.03;;;2.93;62.08
41254;BME280;26987;59.928;30.306;2023-04-07T03:55:32;102849.25;;;3.24;60.92
41254;BME280;26987;59.928;30.306;2023-04-07T03:58:08;102851.56;;;3.68;58.70
41254;BME280;26987;59.928;30.306;2023-04-07T04:00:37;102857.91;;;3.91;58.01
41254;BME280;26987;59.928;30.306;2023-04-07T04:03:09;102863.28;;;4.27;56.84
41254;BME280;26987;59.928;30.306;2023-04-07T04:05:44;102855.00;;;4.32;56.08
41254;BME280;26987;59.928;30.306;2023-04-07T04:08:19;102864.72;;;4.80;54.49
41254;BME280;26987;59.928;30.306;2023-04-07T04:10:47;102870.75;;;5.29;53.37
41254;BME280;26987;59.928;30.306;2023-04-07T04:13:15;102869.22;;;5.61;51.78
41254;BME280;26987;59.928;30.306;2023-04-07T04:15:43;102870.72;;;5.98;50.50
41254;BME280;26987;59.928;30.306;2023-04-07T04:18:14;102868.56;;;6.48;48.97
41254;BME280;26987;59.928;30.306;2023-04-07T04:20:42;102865.31;;;6.98;47.76
41254;BME280;26987;59.928;30.306;2023-04-07T04:23:10;102859.75;;;7.32;45.91
41254;BME280;26987;59.928;30.306;2023-04-07T04:25:41;102868.09;;;6.97;46.86
41254;BME280;26987;59.928;30.306;2023-04-07T04:28:11;102867.59;;;7.03;46.32
41254;BME280;26987;59.928;30.306;2023-04-07T04:30:40;102867.59;;;6.81;46.94
41254;BME280;26987;59.928;30.306;2023-04-07T04:33:09;102871.78;;;7.27;46.44
41254;BME280;26987;59.928;30.306;2023-04-07T04:35:44;102869.53;;;7.94;44.75
41254;BME280;26987;59.928;30.306;2023-04-07T04:38:16;102875.78;;;8.44;43.37
41254;BME280;26987;59.928;30.306;2023-04-07T04:40:52;102873.69;;;8.98;42.12
41254;BME280;26987;59.928;30.306;2023-04-07T04:43:26;102870.28;;;8.95;41.17
41254;BME280;26987;59.928;30.306;2023-04-07T04:45:55;102876.38;;;8.78;41.19
41254;BME280;26987;59.928;30.306;2023-04-07T04:48:26;102867.88;;;9.12;40.89
41254;BME280;26987;59.928;30.306;2023-04-07T04:50:54;102855.53;;;9.29;39.64
41254;BME280;26987;59.928;30.306;2023-04-07T04:53:22;102856.19;;;9.41;39.65
41254;BME280;26987;59.928;30.306;2023-04-07T04:55:57;102870.53;;;10.06;38.42
41254;BME280;26987;59.928;30.306;2023-04-07T04:58:35;102862.81;;;10.21;37.47
41254;BME280;26987;59.928;30.306;2023-04-07T05:01:03;102873.56;;;10.76;37.21
41254;BME280;26987;59.928;30.306;2023-04-07T05:03:46;102877.47;;;10.82;36.52
41254;BME280;26987;59.928;30.306;2023-04-07T05:06:22;102862.84;;;10.58;36.63
41254;BME280;26987;59.928;30.306;2023-04-07T05:08:52;102870.81;;;10.68;36.77
41254;BME280;26987;59.928;30.306;2023-04-07T05:11:26;102870.38;;;11.26;35.96
41254;BME280;26987;59.928;30.306;2023-04-07T05:13:56;102871.31;;;11.16;35.40
41254;BME280;26987;59.928;30.306;2023-04-07T05:16:24;102868.00;;;11.57;35.07
41254;BME280;26987;59.928;30.306;2023-04-07T05:18:55;102828.44;;;11.33;34.63
41254;BME280;26987;59.928;30.306;2023-04-07T05:21:25;102868.16;;;11.47;34.75
41254;BME280;26987;59.928;30.306;2023-04-07T05:23:56;102871.78;;;11.73;34.25
41254;BME280;26987;59.928;30.306;2023-04-07T05:26:26;102875.66;;;12.55;33.27
41254;BME280;26987;59.928;30.306;2023-04-07T05:28:54;102869.88;;;13.08;32.05
41254;BME280;26987;59.928;30.306;2023-04-07T05:31:24;102865.09;;;13.35;31.76
41254;BME280;26987;59.928;30.306;2023-04-07T05:33:55;102867.25;;;13.57;31.54
41254;BME280;26987;59.928;30.306;2023-04-07T05:36:27;102873.75;;;14.03;30.93
41254;BME280;26987;59.928;30.306;2023-04-07T05:38:57;102874.56;;;14.97;29.62
41254;BME280;26987;59.928;30.306;2023-04-07T05:41:27;102863.94;;;14.80;29.54
41254;BME280;26987;59.928;30.306;2023-04-07T05:43:56;102868.88;;;14.92;29.24
41254;BME280;26987;59.928;30.306;2023-04-07T05:46:24;102852.16;;;14.73;29.28
41254;BME280;26987;59.928;30.306;2023-04-07T05:48:56;102863.84;;;14.65;29.27
41254;BME280;26987;59.928;30.306;2023-04-07T05:51:26;102856.06;;;14.23;29.86
41254;BME280;26987;59.928;30.306;2023-04-07T05:53:55;102839.00;;;14.70;29.15
41254;BME280;26987;59.928;30.306;2023-04-07T05:56:24;102856.88;;;15.24;28.62
41254;BME280;26987;59.928;30.306;2023-04-07T05:58:54;102856.84;;;15.39;28.75
41254;BME280;26987;59.928;30.306;2023-04-07T06:01:22;102862.09;;;15.26;28.32
41254;BME280;26987;59.928;30.306;2023-04-07T06:03:50;102859.28;;;14.89;29.00
41254;BME280;26987;59.928;30.306;2023-04-07T06:06:21;102846.91;;;14.56;29.09
41254;BME280;26987;59.928;30.306;2023-04-07T06:08:49;102855.50;;;14.75;28.77
41254;BME280;26987;59.928;30.306;2023-04-07T06:11:17;102864.50;;;14.91;28.57
41254;BME280;26987;59.928;30.306;2023-04-07T06:13:45;102857.44;;;14.66;28.84
41254;BME280;26987;59.928;30.306;2023-04-07T06:16:14;102814.47;;;14.41;29.09
41254;BME280;26987;59.928;30.306;2023-04-07T06:18:42;102865.69;;;15.03;28.47
41254;BME280;26987;59.928;30.306;2023-04-07T06:21:10;102866.28;;;14.36;29.14
41254;BME280;26987;59.928;30.306;2023-04-07T06:23:38;102855.59;;;14.67;28.81
41254;BME280;26987;59.928;30.306;2023-04-07T06:26:09;102855.66;;;14.97;29.05
41254;BME280;26987;59.928;30.306;2023-04-07T06:28:37;102824.38;;;14.64;29.06
41254;BME280;26987;59.928;30.306;2023-04-07T06:31:07;102861.06;;;15.12;28.63
41254;BME280;26987;59.928;30.306;2023-04-07T06:33:37;102858.16;;;13.58;30.50
41254;BME280;26987;59.928;30.306;2023-04-07T06:36:06;102852.94;;;12.58;31.89
41254;BME280;26987;59.928;30.306;2023-04-07T06:38:35;102855.97;;;12.46;32.81
41254;BME280;26987;59.928;30.306;2023-04-07T06:41:03;102860.00;;;12.51;32.79
41254;BME280;26987;59.928;30.306;2023-04-07T06:43:31;102862.66;;;12.09;33.04
41254;BME280;26987;59.928;30.306;2023-04-07T06:46:03;102865.72;;;11.36;34.28
41254;BME280;26987;59.928;30.306;2023-04-07T06:48:31;102862.78;;;11.21;34.63
41254;BME280;26987;59.928;30.306;2023-04-07T06:51:01;102728.78;;;10.21;34.65
41254;BME280;26987;59.928;30.306;2023-04-07T06:53:29;102855.97;;;10.55;35.30
41254;BME280;26987;59.928;30.306;2023-04-07T06:56:04;102864.34;;;10.42;36.18
41254;BME280;26987;59.928;30.306;2023-04-07T06:58:32;102861.00;;;9.76;37.18
41254;BME280;26987;59.928;30.306;2023-04-07T07:01:00;102854.56;;;9.30;37.93
41254;BME280;26987;59.928;30.306;2023-04-07T07:03:28;102856.91;;;8.95;39.33
41254;BME280;26987;59.928;30.306;2023-04-07T07:05:57;102821.75;;;8.70;39.39
41254;BME280;26987;59.928;30.306;2023-04-07T07:08:27;102853.00;;;8.90;39.42
41254;BME280;26987;59.928;30.306;2023-04-07T07:10:56;102853.13;;;8.88;39.59
41254;BME280;26987;59.928;30.306;2023-04-07T07:13:25;102853.56;;;8.83;39.37
41254;BME280;26987;59.928;30.306;2023-04-07T07:15:54;102851.03;;;8.72;40.00
41254;BME280;26987;59.928;30.306;2023-04-07T07:18:21;102853.00;;;8.50;40.06
41254;BME280;26987;59.928;30.306;2023-04-07T07:20:49;102853.81;;;8.11;41.36
41254;BME280;26987;59.928;30.306;2023-04-07T07:23:20;102851.81;;;7.93;41.56
41254;BME280;26987;59.928;30.306;2023-04-07T07:25:49;102860.31;;;7.67;42.26
41254;BME280;26987;59.928;30.306;2023-04-07T07:28:17;102857.63;;;7.67;42.81
41254;BME280;26987;59.928;30.306;2023-04-07T07:30:47;102836.66;;;7.53;42.87
41254;BME280;26987;59.928;30.306;2023-04-07T07:33:14;102863.97;;;7.66;42.81
41254;BME280;26987;59.928;30.306;2023-04-07T07:35:42;102856.50;;;7.70;42.87
41254;BME280;26987;59.928;30.306;2023-04-07T07:38:10;102857.63;;;7.67;42.72
41254;BME280;26987;59.928;30.306;2023-04-07T07:40:38;102845.34;;;7.45;42.53
41254;BME280;26987;59.928;30.306;2023-04-07T07:43:07;102855.53;;;7.30;43.28
41254;BME280;26987;59.928;30.306;2023-04-07T07:45:35;102845.78;;;7.19;43.65
41254;BME280;26987;59.928;30.306;2023-04-07T07:48:03;102850.72;;;7.24;43.27
41254;BME280;26987;59.928;30.306;2023-04-07T07:50:31;102850.44;;;7.27;43.05
41254;BME280;26987;59.928;30.306;2023-04-07T07:52:59;102843.09;;;7.19;43.20
41254;BME280;26987;59.928;30.306;2023-04-07T07:55:26;102850.06;;;7.10;43.50
41254;BME280;26987;59.928;30.306;2023-04-07T07:57:54;102852.38;;;7.25;43.48
41254;BME280;26987;59.928;30.306;2023-04-07T08:00:23;102850.38;;;7.17;42.75
41254;BME280;26987;59.928;30.306;2023-04-07T08:02:51;102844.50;;;7.23;43.33
41254;BME280;26987;59.928;30.306;2023-04-07T08:05:19;102828.88;;;7.09;43.23
41254;BME280;26987;59.928;30.306;2023-04-07T08:07:47;102847.56;;;7.18;42.99
41254;BME280;26987;59.928;30.306;2023-04-07T08:10:15;102841.09;;;7.11;43.83
41254;BME280;26987;59.928;30.306;2023-04-07T08:12:43;102835.50;;;7.14;43.81
41254;BME280;26987;59.928;30.306;2023-04-07T08:15:11;102806.75;;;6.97;43.44
41254;BME280;26987;59.928;30.306;2023-04-07T08:17:40;102845.50;;;7.22;42.86
41254;BME280;26987;59.928;30.306;2023-04-07T08:20:09;102833.22;;;7.10;43.05
41254;BME280;26987;59.928;30.306;2023-04-07T08:22:37;102843.84;;;7.00;43.09
41254;BME280;26987;59.928;30.306;2023-04-07T08:25:05;102831.34;;;7.00;42.35
41254;BME280;26987;59.928;30.306;2023-04-07T08:27:33;102834.59;;;6.82;42.74
41254;BME280;26987;59.928;30.306;2023-04-07T08:30:03;102839.09;;;6.82;42.99
41254;BME280;26987;59.928;30.306;2023-04-07T08:32:35;102840.06;;;6.81;43.16
41254;BME280;26987;59.928;30.306;2023-04-07T08:35:06;102840.91;;;6.81;43.35
41254;BME280;26987;59.928;30.306;2023-04-07T08:37:34;102837.25;;;6.82;43.17
41254;BME280;26987;59.928;30.306;2023-04-07T08:40:03;102835.59;;;6.81;43.05
41254;BME280;26987;59.928;30.306;2023-04-07T08:42:32;102830.50;;;6.78;43.49
41254;BME280;26987;59.928;30.306;2023-04-07T08:45:02;102831.38;;;6.79;43.37
41254;BME280;26987;59.928;30.306;2023-04-07T08:47:31;102838.72;;;6.87;42.90
41254;BME280;26987;59.928;30.306;2023-04-07T08:50:01;102822.72;;;6.87;42.86
41254;BME280;26987;59.928;30.306;2023-04-07T08:52:38;102786.94;;;6.68;42.79
41254;BME280;26987;59.928;30.306;2023-04-07T08:55:08;102828.13;;;7.06;42.58
41254;BME280;26987;59.928;30.306;2023-04-07T08:57:36;102807.34;;;7.00;42.30
41254;BME280;26987;59.928;30.306;2023-04-07T09:00:05;102834.69;;;7.24;42.35
41254;BME280;26987;59.928;30.306;2023-04-07T09:02:34;102814.41;;;7.11;42.16
41254;BME280;26987;59.928;30.306;2023-04-07T09:05:04;102823.56;;;7.18;42.06
41254;BME280;26987;59.928;30.306;2023-04-07T09:07:35;102795.03;;;7.09;41.96
41254;BME280;26987;59.928;30.306;2023-04-07T09:10:04;102829.19;;;7.15;42.16
41254;BME280;26987;59.928;30.306;2023-04-07T09:12:32;102808.50;;;7.07;42.26
41254;BME280;26987;59.928;30.306;2023-04-07T09:15:00;102776.78;;;6.83;42.27
41254;BME280;26987;59.928;30.306;2023-04-07T09:17:29;102817.53;;;7.16;42.07
41254;BME280;26987;59.928;30.306;2023-04-07T09:19:57;102803.72;;;7.11;41.97
41254;BME280;26987;59.928;30.306;2023-04-07T09:22:38;102817.56;;;7.26;42.32
41254;BME280;26987;59.928;30.306;2023-04-07T09:25:14;102814.22;;;7.24;42.07
41254;BME280;26987;59.928;30.306;2023-04-07T09:27:57;102806.88;;;7.16;42.39
41254;BME280;26987;59.928;30.306;2023-04-07T09:30:26;102809.97;;;7.22;42.29
41254;BME280;26987;59.928;30.306;2023-04-07T09:32:54;102795.94;;;7.19;42.07
41254;BME280;26987;59.928;30.306;2023-04-07T09:35:23;102798.50;;;7.31;41.89
41254;BME280;26987;59.928;30.306;2023-04-07T09:38:04;102796.16;;;7.38;41.96
41254;BME280;26987;59.928;30.306;2023-04-07T09:40:33;102804.34;;;7.25;41.32
41254;BME280;26987;59.928;30.306;2023-04-07T09:43:03;102796.63;;;7.22;41.70
41254;BME280;26987;59.928;30.306;2023-04-07T09:45:31;102799.75;;;7.27;41.85
41254;BME280;26987;59.928;30.306;2023-04-07T09:48:04;102804.44;;;7.44;41.81
41254;BME280;26987;59.928;30.306;2023-04-07T09:50:32;102806.41;;;7.42;41.59
41254;BME280;26987;59.928;30.306;2023-04-07T09:53:01;102799.69;;;7.58;41.73
41254;BME280;26987;59.928;30.306;2023-04-07T09:55:32;102752.31;;;7.40;41.18
41254;BME280;26987;59.928;30.306;2023-04-07T09:58:00;102796.38;;;7.76;41.12
41254;BME280;26987;59.928;30.306;2023-04-07T10:00:28;102790.75;;;7.69;40.69
41254;BME280;26987;59.928;30.306;2023-04-07T10:02:56;102748.38;;;7.44;41.01
41254;BME280;26987;59.928;30.306;2023-04-07T10:05:24;102789.19;;;7.66;41.10
41254;BME280;26987;59.928;30.306;2023-04-07T10:07:52;102801.56;;;7.67;40.80
41254;BME280;26987;59.928;30.306;2023-04-07T10:10:20;102784.84;;;7.75;41.02
41254;BME280;26987;59.928;30.306;2023-04-07T10:12:51;102785.31;;;7.90;40.88
41254;BME280;26987;59.928;30.306;2023-04-07T10:15:20;102791.78;;;7.98;40.75
41254;BME280;26987;59.928;30.306;2023-04-07T10:17:49;102783.19;;;7.94;40.66
41254;BME280;26987;59.928;30.306;2023-04-07T10:20:18;102785.03;;;7.93;40.71
41254;BME280;26987;59.928;30.306;2023-04-07T10:22:47;102785.59;;;7.87;40.86
41254;BME280;26987;59.928;30.306;2023-04-07T10:25:18;102781.19;;;7.86;40.92
41254;BME280;26987;59.928;30.306;2023-04-07T10:27:52;102757.75;;;7.80;41.01
41254;BME280;26987;59.928;30.306;2023-04-07T10:30:24;102775.03;;;7.95;40.92
41254;BME280;26987;59.928;30.306;2023-04-07T10:32:53;102772.50;;;7.94;41.01
41254;BME280;26987;59.928;30.306;2023-04-07T10:35:21;102716.38;;;7.64;41.36
41254;BME280;26987;59.928;30.306;2023-04-07T10:38:08;102777.72;;;8.05;41.23
41254;BME280;26987;59.928;30.306;2023-04-07T10:40:37;102758.03;;;7.77;41.58
41254;BME280;26987;59.928;30.306;2023-04-07T10:43:08;102714.44;;;7.66;41.24
41254;BME280;26987;59.928;30.306;2023-04-07T10:45:53;102769.13;;;8.22;41.78
41254;BME280;26987;59.928;30.306;2023-04-07T10:48:21;102768.72;;;8.16;41.05
41254;BME280;26987;59.928;30.306;2023-04-07T10:51:15;102770.69;;;8.24;41.46
41254;BME280;26987;59.928;30.306;2023-04-07T10:57:07;102768.03;;;8.14;41.38
41254;BME280;26987;59.928;30.306;2023-04-07T10:59:40;102760.13;;;8.03;41.24
41254;BME280;26987;59.928;30.306;2023-04-07T11:02:34;102759.56;;;7.89;41.61
41254;BME280;26987;59.928;30.306;2023-04-07T11:05:02;102682.34;;;7.27;41.72
41254;BME280;26987;59.928;30.306;2023-04-07T11:07:47;102709.47;;;7.52;42.26
41254;BME280;26987;59.928;30.306;2023-04-07T11:10:16;102747.91;;;7.90;41.76
41254;BME280;26987;59.928;30.306;2023-04-07T11:12:58;102692.09;;;7.67;41.68
41254;BME280;26987;59.928;30.306;2023-04-07T11:15:27;102749.75;;;8.00;41.65
41254;BME280;26987;59.928;30.306;2023-04-07T11:18:15;102753.38;;;8.18;41.43
41254;BME280;26987;59.928;30.306;2023-04-07T11:20:45;102740.88;;;7.99;40.83
41254;BME280;26987;59.928;30.306;2023-04-07T11:23:15;102752.13;;;8.13;40.66
41254;BME280;26987;59.928;30.306;2023-04-07T11:25:44;102740.75;;;8.01;41.01
41254;BME280;26987;59.928;30.306;2023-04-07T11:28:13;102742.56;;;8.10;40.98
41254;BME280;26987;59.928;30.306;2023-04-07T11:30:47;102747.47;;;8.15;41.13
41254;BME280;26987;59.928;30.306;2023-04-07T11:33:18;102742.72;;;8.08;40.76
41254;BME280;26987;59.928;30.306;2023-04-07T11:35:48;102732.00;;;7.99;41.22
41254;BME280;26987;59.928;30.306;2023-04-07T11:38:17;102739.19;;;8.08;40.91
41254;BME280;26987;59.928;30.306;2023-04-07T11:40:45;102732.16;;;8.07;40.92
41254;BME280;26987;59.928;30.306;2023-04-07T11:43:17;102737.06;;;8.22;41.06
41254;BME280;26987;59.928;30.306;2023-04-07T11:46:02;102735.38;;;8.40;40.85
41254;BME280;26987;59.928;30.306;2023-04-07T11:48:32;102734.94;;;8.35;40.25
41254;BME280;26987;59.928;30.306;2023-04-07T11:51:00;102730.59;;;8.34;40.89
41254;BME280;26987;59.928;30.306;2023-04-07T11:53:29;102733.56;;;8.31;39.83
41254;BME280;26987;59.928;30.306;2023-04-07T11:56:01;102735.94;;;8.34;40.80
41254;BME280;26987;59.928;30.306;2023-04-07T11:58:29;102730.88;;;8.31;40.62
41254;BME280;26987;59.928;30.306;2023-04-07T12:01:00;102725.09;;;8.36;40.60
41254;BME280;26987;59.928;30.306;2023-04-07T12:03:32;102713.41;;;8.37;39.88
41254;BME280;26987;59.928;30.306;2023-04-07T12:06:01;102697.66;;;8.33;40.21
41254;BME280;26987;59.928;30.306;2023-04-07T12:08:36;102713.81;;;8.52;39.54
41254;BME280;26987;59.928;30.306;2023-04-07T12:11:05;102710.88;;;8.35;39.55
41254;BME280;26987;59.928;30.306;2023-04-07T12:13:33;102684.88;;;8.27;40.07
41254;BME280;26987;59.928;30.306;2023-04-07T12:16:02;102708.88;;;8.57;40.09
41254;BME280;26987;59.928;30.306;2023-04-07T12:18:30;102710.03;;;8.64;39.44
41254;BME280;26987;59.928;30.306;2023-04-07T12:20:58;102701.84;;;8.66;39.34
41254;BME280;26987;59.928;30.306;2023-04-07T12:23:26;102698.72;;;8.70;39.07
41254;BME280;26987;59.928;30.306;2023-04-07T12:25:54;102707.44;;;8.73;39.28
41254;BME280;26987;59.928;30.306;2023-04-07T12:28:22;102704.09;;;8.61;39.33
41254;BME280;26987;59.928;30.306;2023-04-07T12:30:50;102705.66;;;8.53;39.55
41254;BME280;26987;59.928;30.306;2023-04-07T12:33:19;102702.00;;;8.54;39.95
41254;BME280;26987;59.928;30.306;2023-04-07T12:35:47;102697.91;;;8.60;39.91
41254;BME280;26987;59.928;30.306;2023-04-07T12:38:15;102708.03;;;8.66;39.76
41254;BME280;26987;59.928;30.306;2023-04-07T12:40:43;102691.16;;;8.56;39.73
41254;BME280;26987;59.928;30.306;2023-04-07T12:43:11;102702.88;;;8.55;39.48
41254;BME280;26987;59.928;30.306;2023-04-07T12:45:39;102704.25;;;8.59;39.69
41254;BME280;26987;59.928;30.306;2023-04-07T12:48:07;102698.38;;;8.55;39.90
41254;BME280;26987;59.928;30.306;2023-04-07T12:50:36;102701.56;;;8.59;39.76
41254;BME280;26987;59.928;30.306;2023-04-07T12:53:04;102693.84;;;8.56;39.66
41254;BME280;26987;59.928;30.306;2023-04-07T12:55:32;102678.91;;;8.53;39.76
41254;BME280;26987;59.928;30.306;2023-04-07T12:58:01;102695.38;;;8.58;39.71
41254;BME280;26987;59.928;30.306;2023-04-07T13:00:28;102691.16;;;8.56;39.95
41254;BME280;26987;59.928;30.306;2023-04-07T13:02:56;102658.38;;;8.44;40.13
41254;BME280;26987;59.928;30.306;2023-04-07T13:05:24;102685.66;;;8.67;40.12
41254;BME280;26987;59.928;30.306;2023-04-07T13:07:54;102681.72;;;8.52;40.52